Time;durP1;ratioP1;P1;durP2;ratioP2;P2;SDS_P1;SDS_P2;PMS_P1;PMS_P2;Temp;Humidity;BMP_temperature;BMP_pressure;BME280_temperature;BME280_humidity;BME280_pressure;Samples;Min_cycle;Max_cycle;Signal;HPM_P1;HPM_P2
2022/05/03 00:01:56;;;;;;;7.88;6.68;;;;;;;;;;5009871;28;20137;-68
2022/05/03 00:04:45;;;;;;;8.03;7.23;;;;;;;;;;5009467;28;20056;-68
2022/05/03 00:07:23;;;;;;;10.98;7.97;;;;;;;;;;5009745;28;20317;-68
2022/05/03 00:10:31;;;;;;;10.43;7.95;;;;;;;;;;5008487;28;20050;-68
2022/05/03 00:13:05;;;;;;;7.10;6.40;;;;;;;;;;5010612;28;20071;-68
2022/05/03 00:15:35;;;;;;;7.10;6.47;;;;;;;;;;5076963;28;20129;-68
2022/05/03 00:18:07;;;;;;;7.43;6.72;;;;;;;;;;5009592;28;20050;-68
2022/05/03 00:20:39;;;;;;;7.85;7.05;;;;;;;;;;5010982;28;20491;-68
2022/05/03 00:23:10;;;;;;;7.40;6.78;;;;;;;;;;5012839;28;20459;-68
2022/05/03 00:25:38;;;;;;;9.13;8.23;;;;;;;;;;5011708;28;20042;-68
2022/05/03 00:28:07;;;;;;;12.07;8.60;;;;;;;;;;5011585;28;20050;-66
2022/05/03 00:30:35;;;;;;;9.27;8.18;;;;;;;;;;5012488;28;20042;-66
2022/05/03 00:33:04;;;;;;;10.73;8.65;;;;;;;;;;5079874;28;20056;-66
2022/05/03 00:35:33;;;;;;;9.52;8.63;;;;;;;;;;5012509;28;20500;-66
2022/05/03 00:38:01;;;;;;;10.15;9.02;;;;;;;;;;5079190;28;20034;-66
2022/05/03 00:40:31;;;;;;;10.85;8.88;;;;;;;;;;5012564;28;20084;-66
2022/05/03 00:43:08;;;;;;;13.00;8.65;;;;;;;;;;5078918;28;20124;-66
2022/05/03 00:45:50;;;;;;;8.98;7.93;;;;;;;;;;5012133;28;20518;-66
2022/05/03 00:48:25;;;;;;;10.13;8.75;;;;;;;;;;5078925;28;20069;-65
2022/05/03 00:50:52;;;;;;;11.30;8.15;;;;;;;;;;5011937;28;20057;-66
2022/05/03 00:53:33;;;;;;;9.05;7.25;;;;;;;;;;5012332;28;20057;-66
2022/05/03 00:56:22;;;;;;;11.80;7.88;;;;;;;;;;5079579;28;20397;-66
2022/05/03 00:59:03;;;;;;;9.80;7.38;;;;;;;;;;5012054;28;20141;-66
2022/05/03 01:01:44;;;;;;;8.80;7.90;;;;;;;;;;5070275;28;20408;-66
2022/05/03 01:04:26;;;;;;;8.30;7.47;;;;;;;;;;5012421;28;20076;-66
2022/05/03 01:07:05;;;;;;;8.52;7.68;;;;;;;;;;5011563;28;20049;-67
2022/05/03 01:09:41;;;;;;;34.33;9.55;;;;;;;;;;5012362;28;20053;-67
2022/05/03 01:12:43;;;;;;;9.38;8.27;;;;;;;;;;5006632;28;20096;-67
2022/05/03 01:15:15;;;;;;;8.23;7.13;;;;;;;;;;5012195;28;20046;-68
2022/05/03 01:18:04;;;;;;;7.82;7.03;;;;;;;;;;5005522;28;20053;-67
2022/05/03 01:20:50;;;;;;;8.25;7.45;;;;;;;;;;5029335;28;20160;-67
2022/05/03 01:23:41;;;;;;;10.68;8.13;;;;;;;;;;5075435;28;20046;-68
2022/05/03 01:26:38;;;;;;;12.13;7.93;;;;;;;;;;5012359;28;20053;-67
2022/05/03 01:29:15;;;;;;;9.43;8.43;;;;;;;;;;5019685;28;20416;-67
2022/05/03 01:31:43;;;;;;;11.57;7.47;;;;;;;;;;5010140;28;20457;-68
2022/05/03 01:34:13;;;;;;;9.90;7.97;;;;;;;;;;5011038;28;20170;-67
2022/05/03 01:36:59;;;;;;;8.35;7.55;;;;;;;;;;5078071;28;20054;-67
2022/05/03 01:40:05;;;;;;;7.25;6.50;;;;;;;;;;5011433;28;20085;-67
2022/05/03 01:42:49;;;;;;;7.95;7.15;;;;;;;;;;5011674;28;20054;-67
2022/05/03 01:45:57;;;;;;;6.82;6.07;;;;;;;;;;5011299;28;20053;-67
2022/05/03 01:51:36;;;;;;;7.82;6.97;;;;;;;;;;5004166;28;20054;-68
2022/05/03 01:54:31;;;;;;;9.55;7.45;;;;;;;;;;5011699;28;20053;-67
2022/05/03 01:57:28;;;;;;;10.65;6.72;;;;;;;;;;5010631;28;20571;-67
2022/05/03 02:00:11;;;;;;;8.88;7.15;;;;;;;;;;5017017;28;20098;-67
2022/05/03 02:03:06;;;;;;;10.25;7.03;;;;;;;;;;5014797;28;20116;-67
2022/05/03 02:06:02;;;;;;;7.13;6.43;;;;;;;;;;5011833;28;20046;-66
2022/05/03 02:08:53;;;;;;;7.53;6.13;;;;;;;;;;5012660;28;20041;-67
2022/05/03 02:11:42;;;;;;;7.60;6.90;;;;;;;;;;5009637;28;20038;-66
2022/05/03 02:17:24;;;;;;;10.80;7.10;;;;;;;;;;5073161;28;20053;-66
2022/05/03 02:20:29;;;;;;;9.18;7.55;;;;;;;;;;5010408;28;20062;-68
2022/05/03 02:23:15;;;;;;;8.65;7.32;;;;;;;;;;5014106;28;20496;-65
2022/05/03 02:26:14;;;;;;;9.65;8.65;;;;;;;;;;5017493;28;20405;-65
2022/05/03 02:28:55;;;;;;;8.77;7.70;;;;;;;;;;5010286;28;20050;-66
2022/05/03 02:31:51;;;;;;;9.88;7.70;;;;;;;;;;5014305;28;20128;-67
2022/05/03 02:34:40;;;;;;;18.38;10.63;;;;;;;;;;5016093;28;20069;-67
2022/05/03 02:37:25;;;;;;;10.45;9.35;;;;;;;;;;5014754;28;20095;-67
2022/05/03 02:40:01;;;;;;;10.52;9.52;;;;;;;;;;5026126;28;20483;-69
2022/05/03 02:42:30;;;;;;;12.27;10.40;;;;;;;;;;5077681;28;20046;-67
2022/05/03 02:45:04;;;;;;;12.10;10.73;;;;;;;;;;5076274;28;20065;-67
2022/05/03 02:47:56;;;;;;;11.52;10.20;;;;;;;;;;4993551;28;20038;-67
2022/05/03 02:50:42;;;;;;;11.50;9.85;;;;;;;;;;4991842;28;20054;-67
2022/05/03 02:53:29;;;;;;;12.15;10.93;;;;;;;;;;4991635;28;20077;-67
2022/05/03 02:56:44;;;;;;;12.98;10.95;;;;;;;;;;4991969;28;20073;-67
2022/05/03 03:01:47;;;;;;;11.38;10.13;;;;;;;;;;5010689;28;20048;-67
2022/05/03 03:02:32;;;;;;;13.68;11.15;;;;;;;;;;5063311;28;20049;-67
2022/05/03 03:05:08;;;;;;;12.43;10.85;;;;;;;;;;5010404;28;20085;-67
2022/05/03 03:07:48;;;;;;;13.65;11.43;;;;;;;;;;4992159;28;20587;-67
2022/05/03 03:10:22;;;;;;;11.68;10.48;;;;;;;;;;4991319;28;20058;-67
2022/05/03 03:12:54;;;;;;;17.02;12.02;;;;;;;;;;4991840;28;20050;-67
2022/05/03 03:15:30;;;;;;;13.65;11.80;;;;;;;;;;4991374;28;20054;-67
2022/05/03 03:17:58;;;;;;;13.52;12.13;;;;;;;;;;5013010;28;20050;-67
2022/05/03 03:20:28;;;;;;;11.55;10.45;;;;;;;;;;5076542;28;20059;-67
2022/05/03 03:22:56;;;;;;;12.73;11.52;;;;;;;;;;5009935;28;20061;-67
2022/05/03 03:25:24;;;;;;;12.80;11.52;;;;;;;;;;5009452;28;20046;-66
2022/05/03 03:27:54;;;;;;;12.98;11.60;;;;;;;;;;5010065;28;20049;-67
2022/05/03 03:30:23;;;;;;;16.33;13.32;;;;;;;;;;5009899;28;20073;-67
2022/05/03 03:32:53;;;;;;;14.38;12.68;;;;;;;;;;5002560;28;20080;-67
2022/05/03 03:35:21;;;;;;;15.73;12.18;;;;;;;;;;4991278;28;20140;-67
2022/05/03 03:37:51;;;;;;;14.73;13.32;;;;;;;;;;4991060;28;20069;-67
2022/05/03 03:40:20;;;;;;;14.43;12.40;;;;;;;;;;4991140;28;20512;-67
2022/05/03 03:42:49;;;;;;;18.45;13.35;;;;;;;;;;4991288;28;20423;-68
2022/05/03 03:45:18;;;;;;;15.75;14.02;;;;;;;;;;4991109;28;20063;-68
2022/05/03 03:47:48;;;;;;;15.55;13.60;;;;;;;;;;4991112;28;20050;-67
2022/05/03 03:50:16;;;;;;;17.13;13.70;;;;;;;;;;4990795;28;20058;-67
2022/05/03 03:52:46;;;;;;;18.70;13.48;;;;;;;;;;4991347;28;20050;-67
2022/05/03 03:55:14;;;;;;;16.25;13.20;;;;;;;;;;4993191;28;20073;-67
2022/05/03 03:57:42;;;;;;;16.00;13.68;;;;;;;;;;4994588;28;20133;-67
2022/05/03 04:00:13;;;;;;;16.15;14.50;;;;;;;;;;4994245;28;20058;-67
2022/05/03 04:02:43;;;;;;;14.82;13.30;;;;;;;;;;4994464;28;20069;-67
2022/05/03 04:05:23;;;;;;;15.05;13.25;;;;;;;;;;4994265;28;20099;-67
2022/05/03 04:07:52;;;;;;;16.40;14.60;;;;;;;;;;5001798;28;20054;-68
2022/05/03 04:10:21;;;;;;;22.55;14.90;;;;;;;;;;4993527;28;20554;-68
2022/05/03 04:12:50;;;;;;;17.27;13.13;;;;;;;;;;4994355;28;20084;-68
2022/05/03 04:15:18;;;;;;;27.02;15.00;;;;;;;;;;4993788;28;20042;-68
2022/05/03 04:17:47;;;;;;;18.55;14.00;;;;;;;;;;5006674;28;20050;-68
2022/05/03 04:20:16;;;;;;;14.55;13.02;;;;;;;;;;5013002;28;20054;-68
2022/05/03 04:22:46;;;;;;;16.58;13.57;;;;;;;;;;5006307;28;20075;-67
2022/05/03 04:25:14;;;;;;;16.17;13.35;;;;;;;;;;4993775;28;20050;-67
2022/05/03 04:27:42;;;;;;;18.10;14.38;;;;;;;;;;4993449;28;20046;-69
2022/05/03 04:30:11;;;;;;;22.05;14.23;;;;;;;;;;4993751;28;20055;-67
2022/05/03 04:32:40;;;;;;;13.57;11.85;;;;;;;;;;4993685;28;20378;-67
2022/05/03 04:35:10;;;;;;;14.02;11.48;;;;;;;;;;4994024;28;20118;-67
2022/05/03 04:37:39;;;;;;;14.93;12.90;;;;;;;;;;4993742;28;20092;-67
2022/05/03 04:40:11;;;;;;;20.45;13.25;;;;;;;;;;4993613;28;20065;-67
2022/05/03 04:42:44;;;;;;;16.90;12.90;;;;;;;;;;4993790;28;20173;-67
2022/05/03 04:45:13;;;;;;;15.70;12.55;;;;;;;;;;4993071;28;20058;-67
2022/05/03 04:47:40;;;;;;;14.00;12.27;;;;;;;;;;4993934;28;20194;-68
2022/05/03 04:50:11;;;;;;;14.70;13.18;;;;;;;;;;4993186;28;20077;-68
2022/05/03 04:52:39;;;;;;;15.15;13.32;;;;;;;;;;4993829;28;20042;-68
2022/05/03 04:55:09;;;;;;;14.10;12.60;;;;;;;;;;4993272;28;20050;-65
2022/05/03 04:57:38;;;;;;;16.92;12.55;;;;;;;;;;4993358;28;20104;-65
2022/05/03 05:00:07;;;;;;;12.73;11.48;;;;;;;;;;4993201;28;20054;-66
2022/05/03 05:02:34;;;;;;;28.92;12.55;;;;;;;;;;4993156;28;20121;-66
2022/05/03 05:05:03;;;;;;;13.57;11.75;;;;;;;;;;4992930;28;20451;-66
2022/05/03 05:07:32;;;;;;;13.98;11.40;;;;;;;;;;4992555;28;20566;-65
2022/05/03 05:12:48;;;;;;;14.70;10.48;;;;;;;;;;4992749;28;20505;-65
2022/05/03 05:15:16;;;;;;;13.50;11.50;;;;;;;;;;4993176;28;20042;-65
2022/05/03 05:17:43;;;;;;;15.13;10.90;;;;;;;;;;4993023;28;20046;-67
2022/05/03 05:20:11;;;;;;;12.98;10.73;;;;;;;;;;4992994;28;20146;-67
2022/05/03 05:22:39;;;;;;;14.05;11.18;;;;;;;;;;5015155;28;20045;-67
2022/05/03 05:25:09;;;;;;;14.98;11.07;;;;;;;;;;5014810;28;20034;-68
2022/05/03 05:27:37;;;;;;;14.20;11.23;;;;;;;;;;5010289;28;20111;-68
2022/05/03 05:30:08;;;;;;;11.77;9.82;;;;;;;;;;5014178;28;20065;-67
2022/05/03 05:32:36;;;;;;;10.18;9.02;;;;;;;;;;5013259;28;20141;-67
2022/05/03 05:35:05;;;;;;;12.60;9.07;;;;;;;;;;5012861;28;20062;-67
2022/05/03 05:37:32;;;;;;;11.75;8.73;;;;;;;;;;5013975;28;20042;-66
2022/05/03 05:40:02;;;;;;;8.88;7.57;;;;;;;;;;5014170;28;20061;-67
2022/05/03 05:42:31;;;;;;;11.57;8.48;;;;;;;;;;5012664;28;20050;-67
2022/05/03 05:45:08;;;;;;;9.15;8.25;;;;;;;;;;5013617;28;20405;-67
2022/05/03 05:47:35;;;;;;;14.80;9.10;;;;;;;;;;5012607;28;20045;-67
2022/05/03 05:50:05;;;;;;;13.75;8.52;;;;;;;;;;5015524;28;20053;-66
2022/05/03 05:55:21;;;;;;;8.48;7.63;;;;;;;;;;5003941;28;20042;-69
2022/05/03 05:57:49;;;;;;;13.40;7.75;;;;;;;;;;5002406;28;20052;-74
2022/05/03 06:00:18;;;;;;;7.55;6.75;;;;;;;;;;4996312;28;20062;-69
2022/05/03 06:02:47;;;;;;;7.38;6.68;;;;;;;;;;4992112;28;20043;-68
2022/05/03 06:05:15;;;;;;;10.95;7.68;;;;;;;;;;4992654;28;20054;-71
2022/05/03 06:07:44;;;;;;;10.13;8.05;;;;;;;;;;5005668;28;20049;-70
2022/05/03 06:10:12;;;;;;;19.65;7.50;;;;;;;;;;5010642;28;20132;-69
2022/05/03 06:12:40;;;;;;;13.05;7.13;;;;;;;;;;5008983;28;20050;-71
2022/05/03 06:15:10;;;;;;;12.15;8.15;;;;;;;;;;5009282;28;20078;-70
2022/05/03 06:17:41;;;;;;;10.98;7.38;;;;;;;;;;5009485;28;20584;-69
2022/05/03 06:20:10;;;;;;;16.60;7.32;;;;;;;;;;5009731;28;20065;-69
2022/05/03 06:22:39;;;;;;;10.55;7.10;;;;;;;;;;5010729;28;20054;-67
2022/05/03 06:25:09;;;;;;;9.93;8.93;;;;;;;;;;5008674;28;20045;-67
2022/05/03 06:27:38;;;;;;;23.10;8.55;;;;;;;;;;5008325;28;20030;-68
2022/05/03 06:30:06;;;;;;;16.13;8.48;;;;;;;;;;5008035;28;20054;-68
2022/05/03 06:32:40;;;;;;;12.57;9.18;;;;;;;;;;5007901;28;20133;-67
2022/05/03 06:35:09;;;;;;;13.02;8.88;;;;;;;;;;5007228;28;20412;-70
2022/05/03 06:37:38;;;;;;;16.80;8.77;;;;;;;;;;5003250;28;20137;-72
2022/05/03 06:40:08;;;;;;;11.82;10.07;;;;;;;;;;5009080;28;20038;-71
2022/05/03 06:42:38;;;;;;;20.13;9.43;;;;;;;;;;5010508;28;20046;-72
2022/05/03 06:45:09;;;;;;;18.92;9.85;;;;;;;;;;5007581;28;20042;-75
2022/05/03 06:47:50;;;;;;;20.13;9.98;;;;;;;;;;5008543;28;20050;-74
2022/05/03 06:50:20;;;;;;;13.80;9.68;;;;;;;;;;5007679;28;20129;-75
2022/05/03 06:52:48;;;;;;;18.27;8.48;;;;;;;;;;5009663;28;20053;-75
2022/05/03 06:55:17;;;;;;;16.58;8.48;;;;;;;;;;5011018;28;20042;-75
2022/05/03 06:57:47;;;;;;;13.43;8.60;;;;;;;;;;5010221;28;20156;-75
2022/05/03 07:00:17;;;;;;;16.42;8.15;;;;;;;;;;5010511;28;20054;-75
2022/05/03 07:02:46;;;;;;;14.52;9.45;;;;;;;;;;4994623;28;20058;-74
2022/05/03 07:05:13;;;;;;;13.27;8.25;;;;;;;;;;5005591;28;20054;-75
2022/05/03 07:07:42;;;;;;;8.63;7.75;;;;;;;;;;5010052;28;20434;-75
2022/05/03 07:10:10;;;;;;;12.57;8.15;;;;;;;;;;5010067;28;20061;-78
2022/05/03 07:12:39;;;;;;;8.98;7.75;;;;;;;;;;5010410;28;20046;-77
2022/05/03 07:15:10;;;;;;;11.73;7.78;;;;;;;;;;4993645;28;20504;-82
2022/05/03 07:23:15;;;;;;;17.80;10.40;;;;;;;;;;5013799;28;20030;-68
2022/05/03 07:25:44;;;;;;;13.20;9.35;;;;;;;;;;5009255;28;20140;-68
2022/05/03 07:28:12;;;;;;;14.05;8.95;;;;;;;;;;5012961;28;20044;-68
2022/05/03 07:30:41;;;;;;;12.55;8.80;;;;;;;;;;5014464;28;20437;-68
2022/05/03 07:33:09;;;;;;;19.33;10.00;;;;;;;;;;5015506;28;20073;-68
2022/05/03 07:35:37;;;;;;;25.60;9.50;;;;;;;;;;5015322;28;20405;-68
2022/05/03 07:38:06;;;;;;;12.30;8.40;;;;;;;;;;5014088;28;20052;-68
2022/05/03 07:40:35;;;;;;;10.48;9.27;;;;;;;;;;5013251;28;20508;-68
2022/05/03 07:43:05;;;;;;;13.40;9.73;;;;;;;;;;5012653;28;20064;-68
2022/05/03 07:45:33;;;;;;;14.32;10.38;;;;;;;;;;5015261;28;20060;-68
2022/05/03 07:48:06;;;;;;;8.73;7.93;;;;;;;;;;5018737;28;20056;-68
2022/05/03 07:50:36;;;;;;;8.20;7.40;;;;;;;;;;5013908;28;20192;-68
2022/05/03 07:53:05;;;;;;;9.77;7.55;;;;;;;;;;5011747;28;20044;-69
2022/05/03 07:55:34;;;;;;;9.70;7.55;;;;;;;;;;5011818;28;20082;-68
2022/05/03 07:58:01;;;;;;;10.35;8.50;;;;;;;;;;5016268;28;20058;-68
2022/05/03 08:00:29;;;;;;;10.30;8.75;;;;;;;;;;5012674;28;20058;-68
2022/05/03 08:02:58;;;;;;;15.45;8.57;;;;;;;;;;5013666;28;20166;-68
2022/05/03 08:05:26;;;;;;;9.77;8.00;;;;;;;;;;5013101;28;20103;-68
2022/05/03 08:07:55;;;;;;;9.70;8.57;;;;;;;;;;5012606;28;20050;-68
2022/05/03 08:10:23;;;;;;;9.45;8.40;;;;;;;;;;5082197;28;20714;-68
2022/05/03 08:12:51;;;;;;;11.48;9.40;;;;;;;;;;5017437;28;20081;-68
2022/05/03 08:15:21;;;;;;;11.13;8.30;;;;;;;;;;5015893;28;20512;-67
2022/05/03 08:17:50;;;;;;;9.75;8.70;;;;;;;;;;5012181;28;20045;-67
2022/05/03 08:20:18;;;;;;;9.95;8.73;;;;;;;;;;5019852;28;20103;-67
2022/05/03 08:22:48;;;;;;;10.77;8.20;;;;;;;;;;5006442;28;20046;-67
2022/05/03 08:25:18;;;;;;;10.80;8.10;;;;;;;;;;5006788;28;20045;-67
2022/05/03 08:27:46;;;;;;;10.73;8.90;;;;;;;;;;5012175;28;20046;-69
2022/05/03 08:30:14;;;;;;;11.50;9.65;;;;;;;;;;5007975;28;20513;-67
2022/05/03 08:32:43;;;;;;;12.07;9.40;;;;;;;;;;5008939;28;20046;-67
2022/05/03 08:35:11;;;;;;;12.30;9.13;;;;;;;;;;5003325;28;20072;-67
2022/05/03 08:43:13;;;;;;;12.68;8.52;;;;;;;;;;4996246;28;20520;-68
2022/05/03 08:45:45;;;;;;;10.57;9.48;;;;;;;;;;4999983;28;20058;-68
2022/05/03 08:48:13;;;;;;;12.65;8.95;;;;;;;;;;5002235;28;20050;-67
2022/05/03 08:50:42;;;;;;;12.07;10.30;;;;;;;;;;4992407;28;20485;-68
2022/05/03 08:53:10;;;;;;;10.52;9.48;;;;;;;;;;5058889;28;20088;-68
2022/05/03 08:55:42;;;;;;;10.85;8.80;;;;;;;;;;4992597;28;20105;-68
2022/05/03 08:58:17;;;;;;;10.73;9.13;;;;;;;;;;4993725;28;20063;-68
2022/05/03 09:00:45;;;;;;;16.50;9.65;;;;;;;;;;4993347;28;20091;-68
2022/05/03 09:03:15;;;;;;;10.30;9.40;;;;;;;;;;5001067;28;20049;-68
2022/05/03 09:05:47;;;;;;;9.95;8.95;;;;;;;;;;5012542;28;20054;-68
2022/05/03 09:08:23;;;;;;;9.85;8.93;;;;;;;;;;5011434;28;20080;-68
2022/05/03 09:10:53;;;;;;;8.68;7.82;;;;;;;;;;5012009;28;20077;-68
2022/05/03 09:13:40;;;;;;;17.75;9.52;;;;;;;;;;5011260;28;20441;-68
2022/05/03 09:16:15;;;;;;;10.95;9.18;;;;;;;;;;5011866;28;20046;-68
2022/05/03 09:18:47;;;;;;;11.48;10.32;;;;;;;;;;4996777;28;20455;-68
2022/05/03 09:24:21;;;;;;;9.93;8.93;;;;;;;;;;5045235;28;20449;-68
2022/05/03 09:26:49;;;;;;;11.07;8.70;;;;;;;;;;5012026;28;20120;-68
2022/05/03 09:29:19;;;;;;;11.20;8.57;;;;;;;;;;5011671;28;20386;-68
2022/05/03 09:31:51;;;;;;;17.33;9.18;;;;;;;;;;5011554;28;20450;-67
2022/05/03 09:34:25;;;;;;;9.02;7.85;;;;;;;;;;5010260;28;20061;-68
2022/05/03 09:37:09;;;;;;;10.95;9.50;;;;;;;;;;4991734;28;20054;-67
2022/05/03 09:39:58;;;;;;;9.20;8.38;;;;;;;;;;4992831;28;20143;-68
2022/05/03 09:42:28;;;;;;;9.43;8.52;;;;;;;;;;5008453;28;20042;-67
2022/05/03 09:44:59;;;;;;;8.75;7.63;;;;;;;;;;4996879;28;20066;-68
2022/05/03 09:47:33;;;;;;;9.18;8.18;;;;;;;;;;5062725;28;20463;-67
2022/05/03 09:50:01;;;;;;;10.60;8.00;;;;;;;;;;4993067;28;20050;-68
2022/05/03 09:52:32;;;;;;;8.95;7.30;;;;;;;;;;5057643;28;20046;-67
2022/05/03 09:55:06;;;;;;;10.10;9.10;;;;;;;;;;4993175;28;20451;-68
2022/05/03 09:57:40;;;;;;;8.25;7.38;;;;;;;;;;5011068;28;20050;-68
2022/05/03 10:00:11;;;;;;;10.30;7.85;;;;;;;;;;5011470;28;20049;-70
2022/05/03 10:02:42;;;;;;;12.02;7.93;;;;;;;;;;5011557;28;20420;-68
2022/05/03 10:05:21;;;;;;;12.73;8.38;;;;;;;;;;5005052;28;20512;-67
2022/05/03 10:07:50;;;;;;;10.18;8.48;;;;;;;;;;5015536;28;20140;-67
2022/05/03 10:10:19;;;;;;;9.23;7.40;;;;;;;;;;5010276;28;20073;-67
2022/05/03 10:12:49;;;;;;;9.20;8.13;;;;;;;;;;5010714;28;20050;-67
2022/05/03 10:21:13;;;;;;;11.93;8.80;;;;;;;;;;4991805;28;19957;-68
2022/05/03 10:23:41;;;;;;;9.65;8.30;;;;;;;;;;4999734;28;20041;-69
2022/05/03 10:26:10;;;;;;;10.35;8.23;;;;;;;;;;5009042;28;20098;-69
2022/05/03 10:29:09;;;;;;;15.23;8.98;;;;;;;;;;5075841;28;20050;-70
2022/05/03 10:32:07;;;;;;;8.85;7.88;;;;;;;;;;5007717;28;20064;-69
2022/05/03 10:34:59;;;;;;;9.65;8.55;;;;;;;;;;5008769;28;20041;-69
2022/05/03 10:37:29;;;;;;;7.95;5.05;;;;;;;;;;5005856;28;20064;-68
2022/05/03 10:40:00;;;;;;;5.07;4.63;;;;;;;;;;5005718;28;20512;-69
2022/05/03 10:42:30;;;;;;;7.10;4.63;;;;;;;;;;5008051;28;20061;-72
2022/05/03 10:45:01;;;;;;;7.65;5.50;;;;;;;;;;5010414;28;20408;-71
2022/05/03 10:47:48;;;;;;;6.32;5.72;;;;;;;;;;4996668;28;20050;-73
2022/05/03 10:50:15;;;;;;;6.55;5.93;;;;;;;;;;4997014;28;20050;-72
2022/05/03 10:52:56;;;;;;;7.93;6.00;;;;;;;;;;5004382;28;20042;-73
2022/05/03 10:56:08;;;;;;;7.07;6.43;;;;;;;;;;5009491;28;20053;-72
2022/05/03 10:58:41;;;;;;;7.30;5.05;;;;;;;;;;5008173;28;20048;-71
2022/05/03 11:01:21;;;;;;;7.28;5.45;;;;;;;;;;5010263;28;20050;-75
2022/05/03 11:03:59;;;;;;;5.15;4.72;;;;;;;;;;5009779;28;20098;-75
2022/05/03 11:06:26;;;;;;;7.28;5.03;;;;;;;;;;5010593;28;20145;-77
2022/05/03 11:11:44;;;;;;;6.75;5.57;;;;;;;;;;5010452;28;20407;-79
2022/05/03 11:14:27;;;;;;;8.27;5.53;;;;;;;;;;5010645;28;20132;-78
2022/05/03 11:17:09;;;;;;;6.65;6.05;;;;;;;;;;5009710;28;20054;-75
2022/05/03 11:19:59;;;;;;;5.80;4.47;;;;;;;;;;5003103;28;20049;-75
2022/05/03 11:22:35;;;;;;;7.25;5.30;;;;;;;;;;4989745;28;20045;-65
2022/05/03 11:25:12;;;;;;;11.73;6.93;;;;;;;;;;4987789;28;20065;-65
2022/05/03 11:27:44;;;;;;;8.00;7.05;;;;;;;;;;4988836;28;20097;-65
2022/05/03 11:30:23;;;;;;;7.53;6.78;;;;;;;;;;4994177;28;20456;-65
2022/05/03 11:32:57;;;;;;;7.68;6.95;;;;;;;;;;5002386;28;20034;-65
2022/05/03 11:35:31;;;;;;;7.57;6.82;;;;;;;;;;4995750;28;20050;-65
2022/05/03 11:38:02;;;;;;;9.93;7.05;;;;;;;;;;5074030;28;20079;-65
2022/05/03 11:40:32;;;;;;;8.38;6.90;;;;;;;;;;4990396;28;20054;-65
2022/05/03 11:43:02;;;;;;;11.30;8.18;;;;;;;;;;4990944;28;20058;-66
2022/05/03 11:45:38;;;;;;;13.32;7.53;;;;;;;;;;4989537;28;20063;-65
2022/05/03 11:48:10;;;;;;;7.05;6.35;;;;;;;;;;4991007;28;20069;-65
2022/05/03 11:56:24;;;;;;;11.73;6.80;;;;;;;;;;4990249;28;20051;-70
2022/05/03 11:58:54;;;;;;;6.60;5.60;;;;;;;;;;4995537;28;20538;-61
2022/05/03 12:01:24;;;;;;;5.68;5.18;;;;;;;;;;5063668;28;20056;-62
2022/05/03 12:03:58;;;;;;;18.77;7.97;;;;;;;;;;4990112;28;20093;-61
2022/05/03 12:06:43;;;;;;;39.63;14.02;;;;;;;;;;5077858;28;20145;-61
2022/05/03 12:09:19;;;;;;;6.22;5.35;;;;;;;;;;5009757;28;20112;-62
2022/05/03 12:14:44;;;;;;;;;;;;;;;;;;5005531;28;20077;-61
2022/05/03 12:17:12;;;;;;;6.13;5.00;;;;;;;;;;5002599;28;20286;-62
2022/05/03 12:19:42;;;;;;;5.15;4.65;;;;;;;;;;4993409;28;20417;-62
2022/05/03 12:22:12;;;;;;;5.22;4.80;;;;;;;;;;4994004;28;20081;-62
2022/05/03 12:24:44;;;;;;;6.53;4.93;;;;;;;;;;4993348;28;20050;-62
2022/05/03 12:27:16;;;;;;;7.35;4.15;;;;;;;;;;5059073;28;20417;-61
2022/05/03 12:29:44;;;;;;;;;;;;;;;;;;4993308;28;20441;-61
2022/05/03 12:32:17;;;;;;;5.28;3.95;;;;;;;;;;4993107;28;19926;-63
2022/05/03 12:34:58;;;;;;;5.80;4.20;;;;;;;;;;4993153;28;20054;-63
2022/05/03 12:37:25;;;;;;;5.80;4.38;;;;;;;;;;4993851;28;20092;-63
2022/05/03 12:40:01;;;;;;;5.68;4.82;;;;;;;;;;4993565;28;20046;-63
2022/05/03 12:42:41;;;;;;;7.47;5.63;;;;;;;;;;4999991;28;20141;-63
2022/05/03 12:45:12;;;;;;;8.70;4.53;;;;;;;;;;5007961;28;20136;-64
2022/05/03 12:47:41;;;;;;;4.40;4.00;;;;;;;;;;5010056;28;20452;-65
2022/05/03 12:50:09;;;;;;;5.07;3.67;;;;;;;;;;4994073;28;20485;-63
2022/05/03 12:52:38;;;;;;;5.05;3.58;;;;;;;;;;4993185;28;20161;-63
2022/05/03 12:55:08;;;;;;;3.78;2.80;;;;;;;;;;4993613;28;20054;-63
2022/05/03 13:00:30;;;;;;;5.57;4.15;;;;;;;;;;4993803;28;20503;-63
2022/05/03 13:03:00;;;;;;;6.07;3.97;;;;;;;;;;4999172;28;20073;-63
2022/05/03 13:05:28;;;;;;;3.63;3.28;;;;;;;;;;5006539;28;20098;-63
2022/05/03 13:07:56;;;;;;;3.90;3.60;;;;;;;;;;5073000;28;20050;-64
2022/05/03 13:10:25;;;;;;;7.72;3.80;;;;;;;;;;5011049;28;20045;-63
2022/05/03 13:12:55;;;;;;;4.85;4.32;;;;;;;;;;5011968;28;20046;-63
2022/05/03 13:15:24;;;;;;;6.53;4.60;;;;;;;;;;5011867;28;20046;-63
2022/05/03 13:17:53;;;;;;;5.72;4.20;;;;;;;;;;5005005;28;20141;-64
2022/05/03 13:20:20;;;;;;;4.93;4.43;;;;;;;;;;4992836;28;20054;-63
2022/05/03 13:22:48;;;;;;;5.28;3.72;;;;;;;;;;4992973;28;20057;-63
2022/05/03 13:25:17;;;;;;;8.63;4.30;;;;;;;;;;5000636;28;20099;-63
2022/05/03 13:27:46;;;;;;;4.45;4.00;;;;;;;;;;5011203;28;20084;-63
2022/05/03 13:30:14;;;;;;;5.05;4.47;;;;;;;;;;5011297;28;20099;-64
2022/05/03 13:32:42;;;;;;;6.80;4.38;;;;;;;;;;5011121;28;20050;-63
2022/05/03 13:35:12;;;;;;;13.25;5.55;;;;;;;;;;5011622;28;20076;-64
2022/05/03 13:40:31;;;;;;;5.22;4.72;;;;;;;;;;5011812;28;20407;-63
2022/05/03 13:43:02;;;;;;;7.87;4.60;;;;;;;;;;5011463;28;20516;-63
2022/05/03 13:45:31;;;;;;;7.13;5.10;;;;;;;;;;5011280;28;20107;-63
2022/05/03 13:48:19;;;;;;;5.95;4.78;;;;;;;;;;5009905;28;20065;-63
2022/05/03 13:50:48;;;;;;;5.97;5.22;;;;;;;;;;5009904;28;20054;-63
2022/05/03 13:53:16;;;;;;;6.03;5.40;;;;;;;;;;5009258;28;20054;-63
2022/05/03 13:55:46;;;;;;;6.68;6.07;;;;;;;;;;5009670;28;20493;-63
2022/05/03 13:58:16;;;;;;;6.43;5.05;;;;;;;;;;5011138;28;20046;-63
2022/05/03 14:00:44;;;;;;;12.35;6.75;;;;;;;;;;5010299;28;20048;-63
2022/05/03 14:03:16;;;;;;;7.10;5.03;;;;;;;;;;5011227;28;20060;-63
2022/05/03 14:05:46;;;;;;;6.50;4.50;;;;;;;;;;5011325;28;20110;-63
2022/05/03 14:08:15;;;;;;;9.00;5.28;;;;;;;;;;5006891;28;20075;-63
2022/05/03 14:10:45;;;;;;;8.82;5.55;;;;;;;;;;5059413;28;20087;-64
2022/05/03 14:13:14;;;;;;;5.35;4.85;;;;;;;;;;4992505;28;20089;-64
2022/05/03 14:15:42;;;;;;;6.45;4.47;;;;;;;;;;4991197;28;20125;-63
2022/05/03 14:18:12;;;;;;;5.85;4.93;;;;;;;;;;4998563;28;20042;-63
2022/05/03 14:20:41;;;;;;;6.15;5.55;;;;;;;;;;4991851;28;20057;-64
2022/05/03 14:23:10;;;;;;;4.13;3.72;;;;;;;;;;4991928;28;20058;-63
2022/05/03 14:25:38;;;;;;;7.43;4.80;;;;;;;;;;4992008;28;20064;-63
2022/05/03 14:28:07;;;;;;;7.78;4.28;;;;;;;;;;5002728;28;20087;-64
2022/05/03 14:30:35;;;;;;;5.35;4.07;;;;;;;;;;5011295;28;20111;-63
2022/05/03 14:33:06;;;;;;;4.15;3.85;;;;;;;;;;5010273;28;20057;-63
2022/05/03 14:35:35;;;;;;;5.03;4.43;;;;;;;;;;5010939;28;20046;-63
2022/05/03 14:38:06;;;;;;;6.25;3.90;;;;;;;;;;5003796;28;20056;-63
2022/05/03 14:40:37;;;;;;;7.32;4.15;;;;;;;;;;5010394;28;20042;-63
2022/05/03 14:43:06;;;;;;;7.15;3.25;;;;;;;;;;5010567;28;20049;-64
2022/05/03 14:45:37;;;;;;;4.80;4.18;;;;;;;;;;5010367;28;20077;-63
2022/05/03 14:48:07;;;;;;;9.27;4.20;;;;;;;;;;5002639;28;20065;-63
2022/05/03 14:50:36;;;;;;;7.22;4.15;;;;;;;;;;4992155;28;20419;-63
2022/05/03 14:53:07;;;;;;;4.03;3.55;;;;;;;;;;4991473;28;20095;-63
2022/05/03 14:55:36;;;;;;;12.23;4.22;;;;;;;;;;4991451;28;20061;-63
2022/05/03 15:03:34;;;;;;;8.07;3.47;;;;;;;;;;4998853;28;20050;-63
2022/05/03 15:06:03;;;;;;;5.40;3.95;;;;;;;;;;5009936;28;20702;-63
2022/05/03 15:08:31;;;;;;;4.50;3.67;;;;;;;;;;5010574;28;20073;-70
2022/05/03 15:11:00;;;;;;;7.65;4.85;;;;;;;;;;5015826;28;20046;-64
2022/05/03 15:13:27;;;;;;;10.43;4.28;;;;;;;;;;5019029;28;20041;-64
2022/05/03 15:15:54;;;;;;;5.72;3.72;;;;;;;;;;5014412;28;20480;-62
2022/05/03 15:18:24;;;;;;;11.57;4.75;;;;;;;;;;5006483;28;20042;-61
2022/05/03 15:20:54;;;;;;;5.38;4.70;;;;;;;;;;5010342;28;20042;-62
2022/05/03 15:26:12;;;;;;;6.32;4.70;;;;;;;;;;5002160;28;20404;-62
2022/05/03 15:28:40;;;;;;;6.18;4.40;;;;;;;;;;5004475;28;20050;-62
2022/05/03 15:31:08;;;;;;;6.50;4.43;;;;;;;;;;5010378;28;20038;-62
2022/05/03 15:33:37;;;;;;;7.40;4.70;;;;;;;;;;5010015;28;20095;-62
2022/05/03 15:36:04;;;;;;;7.25;4.50;;;;;;;;;;5009108;28;20053;-62
2022/05/03 15:38:33;;;;;;;9.93;5.47;;;;;;;;;;5007598;28;20046;-62
2022/05/03 15:41:00;;;;;;;8.60;4.65;;;;;;;;;;4990479;28;20525;-61
2022/05/03 15:43:33;;;;;;;7.43;4.70;;;;;;;;;;4997606;28;20171;-62
2022/05/03 15:46:04;;;;;;;6.35;5.50;;;;;;;;;;5000207;28;20133;-62
2022/05/03 15:48:32;;;;;;;20.40;5.70;;;;;;;;;;5002807;28;20413;-62
2022/05/03 15:51:02;;;;;;;7.10;5.07;;;;;;;;;;4993104;28;20141;-62
2022/05/03 15:53:32;;;;;;;5.35;4.20;;;;;;;;;;4994877;28;20424;-63
2022/05/03 15:56:04;;;;;;;5.82;5.07;;;;;;;;;;5000062;28;20046;-62
2022/05/03 15:58:33;;;;;;;5.20;4.60;;;;;;;;;;5013115;28;20403;-61
2022/05/03 16:01:04;;;;;;;7.40;4.90;;;;;;;;;;5013326;28;20055;-61
2022/05/03 16:03:34;;;;;;;6.20;4.80;;;;;;;;;;5079691;28;20079;-62
2022/05/03 16:06:03;;;;;;;6.97;5.45;;;;;;;;;;5012875;28;20442;-62